createdAt,value
2023-01-07T00:01:12.526Z,11.10
2023-01-07T00:03:39.742Z,11.65
2023-01-07T00:06:10.998Z,11.48
2023-01-07T00:08:39.073Z,11.27
2023-01-07T00:11:07.036Z,11.90
2023-01-07T00:13:34.582Z,11.13
2023-01-07T00:16:05.522Z,11.00
2023-01-07T00:18:32.692Z,11.90
2023-01-07T00:21:00.035Z,12.23
2023-01-07T00:23:28.079Z,11.85
2023-01-07T00:26:06.848Z,13.35
2023-01-07T00:28:34.491Z,14.02
2023-01-07T00:31:02.401Z,13.30
2023-01-07T00:33:29.048Z,13.75
2023-01-07T00:36:00.170Z,13.23
2023-01-07T00:38:27.260Z,14.27
2023-01-07T00:40:54.747Z,14.50
2023-01-07T00:43:21.835Z,13.73
2023-01-07T00:45:48.526Z,13.18
2023-01-07T00:48:19.266Z,13.27
2023-01-07T00:50:47.974Z,13.18
2023-01-07T00:53:15.063Z,11.75
2023-01-07T00:55:41.566Z,11.63
2023-01-07T00:58:08.098Z,11.70
2023-01-07T01:00:34.689Z,10.48
2023-01-07T01:03:01.662Z,11.13
2023-01-07T01:05:28.213Z,11.63
2023-01-07T01:07:55.172Z,11.15
2023-01-07T01:10:22.376Z,12.40
2023-01-07T01:12:50.354Z,11.70
2023-01-07T01:15:17.184Z,11.55
2023-01-07T01:17:44.735Z,13.10
2023-01-07T01:20:12.998Z,11.98
2023-01-07T01:22:40.168Z,12.18
2023-01-07T01:25:07.726Z,12.23
2023-01-07T01:27:34.498Z,12.82
2023-01-07T01:30:02.662Z,12.05
2023-01-07T01:32:29.753Z,11.82
2023-01-07T01:34:56.692Z,11.40
2023-01-07T01:37:23.280Z,12.07
2023-01-07T01:39:49.761Z,11.73
2023-01-07T01:42:18.469Z,12.57
2023-01-07T01:44:54.626Z,11.98
2023-01-07T01:47:33.384Z,12.23
2023-01-07T01:50:00.455Z,12.25
2023-01-07T01:52:38.314Z,12.68
2023-01-07T01:55:06.570Z,13.13
2023-01-07T01:57:35.058Z,13.95
2023-01-07T02:00:02.348Z,13.52
2023-01-07T02:02:33.167Z,11.82
2023-01-07T02:05:00.418Z,12.80
2023-01-07T02:07:27.655Z,15.23
2023-01-07T02:09:59.393Z,13.93
2023-01-07T02:15:09.115Z,13.43
2023-01-07T02:17:41.975Z,14.13
2023-01-07T02:20:20.823Z,14.68
2023-01-07T02:23:06.386Z,16.33
2023-01-07T02:25:42.199Z,14.43
2023-01-07T02:28:14.918Z,15.85
2023-01-07T02:31:00.136Z,14.82
2023-01-07T02:33:47.025Z,16.10
2023-01-07T02:36:32.861Z,17.15
2023-01-07T02:39:00.103Z,17.15
2023-01-07T02:41:30.198Z,14.80
2023-01-07T02:44:17.149Z,18.58
2023-01-07T02:46:51.516Z,18.30
2023-01-07T02:49:18.985Z,18.00
2023-01-07T02:51:46.814Z,18.85
2023-01-07T02:54:20.193Z,14.00
2023-01-07T02:57:14.347Z,17.20
2023-01-07T02:59:50.255Z,17.02
2023-01-07T03:02:17.356Z,17.00
2023-01-07T03:05:13.981Z,15.70
2023-01-07T03:07:49.903Z,18.10
2023-01-07T03:10:16.866Z,18.13
2023-01-07T03:12:49.380Z,20.23
2023-01-07T03:15:22.711Z,23.83
2023-01-07T03:17:53.350Z,17.30
2023-01-07T03:20:22.467Z,18.97
2023-01-07T03:22:50.427Z,16.38
2023-01-07T03:25:17.982Z,18.77
2023-01-07T03:27:46.661Z,15.40
2023-01-07T03:30:15.733Z,15.13
2023-01-07T03:32:45.078Z,19.13
2023-01-07T03:35:12.135Z,17.63
2023-01-07T03:37:41.999Z,17.45
2023-01-07T03:40:10.927Z,17.70
2023-01-07T03:42:42.339Z,21.13
2023-01-07T03:45:22.718Z,20.08
2023-01-07T03:47:51.340Z,17.17
2023-01-07T03:50:18.147Z,19.05
2023-01-07T03:52:45.616Z,18.00
2023-01-07T03:55:12.735Z,17.52
2023-01-07T03:57:39.451Z,24.48
2023-01-07T04:00:06.826Z,26.00
2023-01-07T04:02:33.902Z,21.73
2023-01-07T04:05:00.414Z,22.00
2023-01-07T04:07:27.735Z,19.60
2023-01-07T04:09:54.191Z,23.08
2023-01-07T04:12:21.000Z,18.15
2023-01-07T04:14:48.163Z,21.50
2023-01-07T04:17:15.158Z,22.70
2023-01-07T04:19:42.230Z,19.63
2023-01-07T04:22:12.636Z,20.83
2023-01-07T04:24:39.111Z,22.20
2023-01-07T04:27:05.655Z,20.15
2023-01-07T04:29:32.363Z,21.38
2023-01-07T04:31:59.353Z,20.02
2023-01-07T04:34:25.819Z,21.58
2023-01-07T04:36:52.827Z,20.77
2023-01-07T04:39:19.937Z,19.42
2023-01-07T04:41:46.371Z,19.30
2023-01-07T04:44:13.500Z,18.48
2023-01-07T04:46:40.201Z,26.15
2023-01-07T04:49:07.278Z,24.35
2023-01-07T04:51:34.461Z,18.13
2023-01-07T04:54:01.669Z,26.88
2023-01-07T04:56:28.661Z,26.38
2023-01-07T04:58:55.159Z,30.75
2023-01-07T05:01:22.331Z,24.87
2023-01-07T05:03:49.374Z,21.45
2023-01-07T05:06:16.457Z,18.90
2023-01-07T05:08:42.890Z,17.33
2023-01-07T05:11:09.327Z,21.70
2023-01-07T05:13:35.940Z,21.60
2023-01-07T05:16:03.226Z,18.10
2023-01-07T05:18:30.783Z,25.25
2023-01-07T05:20:57.719Z,36.92
2023-01-07T05:23:24.211Z,33.47
2023-01-07T05:25:51.390Z,25.98
2023-01-07T05:28:18.235Z,39.72
2023-01-07T05:30:46.255Z,38.33
2023-01-07T05:33:12.771Z,31.00
2023-01-07T05:35:39.205Z,33.08
2023-01-07T05:38:05.657Z,41.50
2023-01-07T05:40:32.080Z,32.17
2023-01-07T05:42:58.515Z,43.67
2023-01-07T05:45:24.936Z,33.88
2023-01-07T05:47:52.806Z,35.78
2023-01-07T05:50:19.643Z,33.20
2023-01-07T05:52:47.138Z,35.22
2023-01-07T05:55:13.667Z,36.95
2023-01-07T05:57:40.088Z,36.08
2023-01-07T06:00:06.999Z,37.53
2023-01-07T06:02:33.460Z,37.20
2023-01-07T06:05:00.084Z,38.63
2023-01-07T06:07:26.636Z,38.67
2023-01-07T06:09:53.032Z,38.47
2023-01-07T06:12:19.472Z,28.67
2023-01-07T06:14:45.977Z,40.90
2023-01-07T06:17:12.405Z,38.88
2023-01-07T06:19:38.848Z,29.67
2023-01-07T06:22:05.811Z,42.47
2023-01-07T06:24:32.282Z,35.45
2023-01-07T06:26:58.737Z,28.75
2023-01-07T06:29:25.217Z,24.08
2023-01-07T06:31:51.640Z,27.33
2023-01-07T06:34:18.142Z,25.05
2023-01-07T06:36:44.613Z,28.73
2023-01-07T06:39:11.467Z,29.17
2023-01-07T06:41:37.918Z,32.50
2023-01-07T06:44:04.366Z,22.23
2023-01-07T06:46:31.006Z,20.95
2023-01-07T06:48:57.546Z,22.90
2023-01-07T06:51:23.968Z,23.15
2023-01-07T06:53:50.418Z,24.02
2023-01-07T06:56:16.837Z,23.38
2023-01-07T06:58:43.300Z,19.98
2023-01-07T07:01:09.899Z,25.13
2023-01-07T07:03:36.432Z,18.70
2023-01-07T07:06:03.411Z,20.92
2023-01-07T07:08:29.858Z,18.52
2023-01-07T07:10:56.345Z,19.02
2023-01-07T07:13:23.489Z,27.38
2023-01-07T07:15:50.129Z,22.80
2023-01-07T07:18:17.982Z,20.00
2023-01-07T07:20:46.112Z,19.38
2023-01-07T07:23:12.618Z,21.95
2023-01-07T07:25:39.460Z,22.02
2023-01-07T07:28:05.946Z,21.58
2023-01-07T07:30:46.568Z,21.77
2023-01-07T07:33:15.242Z,23.50
2023-01-07T07:35:41.838Z,24.98
2023-01-07T07:38:08.298Z,27.83
2023-01-07T07:40:34.742Z,36.88
2023-01-07T07:43:11.144Z,42.20
2023-01-07T07:45:40.868Z,36.55
2023-01-07T07:48:07.906Z,42.47
2023-01-07T07:50:35.185Z,44.80
2023-01-07T07:53:02.022Z,36.55
2023-01-07T07:55:28.473Z,38.53
2023-01-07T07:57:55.263Z,35.60
2023-01-07T08:00:21.901Z,31.15
2023-01-07T08:02:48.481Z,37.75
2023-01-07T08:05:15.285Z,38.22
2023-01-07T08:07:42.365Z,49.17
2023-01-07T08:10:09.084Z,46.80
2023-01-07T08:12:38.957Z,45.65
2023-01-07T08:15:05.952Z,43.92
2023-01-07T08:17:32.713Z,43.97
2023-01-07T08:20:00.079Z,40.30
2023-01-07T08:22:26.608Z,34.13
2023-01-07T08:24:53.660Z,37.15
2023-01-07T08:27:20.834Z,38.10
2023-01-07T08:29:47.314Z,29.67
2023-01-07T08:32:13.798Z,33.03
2023-01-07T08:34:41.040Z,46.95
2023-01-07T08:37:07.521Z,47.88
2023-01-07T08:39:34.042Z,50.08
2023-01-07T08:42:01.891Z,39.50
2023-01-07T08:44:28.364Z,47.80
2023-01-07T08:46:54.877Z,42.67
2023-01-07T08:49:21.533Z,31.73
2023-01-07T08:51:48.022Z,68.18
2023-01-07T08:54:14.730Z,22.98
2023-01-07T08:56:41.246Z,24.40
2023-01-07T08:59:07.769Z,22.77
2023-01-07T09:01:34.390Z,57.58
2023-01-07T09:04:01.030Z,25.13
2023-01-07T09:06:27.532Z,22.85
2023-01-07T09:08:53.990Z,46.08
2023-01-07T09:11:20.463Z,45.85
2023-01-07T09:13:46.954Z,24.27
2023-01-07T09:16:13.468Z,35.58
2023-01-07T09:18:40.519Z,24.17
2023-01-07T09:21:06.947Z,18.75
2023-01-07T09:23:33.465Z,21.58
2023-01-07T09:25:59.893Z,22.23
2023-01-07T09:28:26.314Z,19.98
2023-01-07T09:30:53.640Z,21.42
2023-01-07T09:33:21.603Z,17.30
2023-01-07T09:35:48.043Z,19.25
2023-01-07T09:38:14.520Z,20.73
2023-01-07T09:40:41.837Z,21.50
2023-01-07T09:43:08.939Z,26.45
2023-01-07T09:45:46.575Z,29.05
2023-01-07T09:48:17.307Z,18.55
2023-01-07T09:50:50.511Z,16.83
2023-01-07T09:53:23.608Z,16.30
2023-01-07T09:56:09.859Z,15.10
2023-01-07T09:58:38.635Z,14.88
2023-01-07T10:01:18.035Z,16.98
2023-01-07T10:03:50.451Z,15.65
2023-01-07T10:06:42.680Z,17.00
2023-01-07T10:09:10.047Z,18.38
2023-01-07T10:11:44.117Z,17.73
2023-01-07T10:14:19.810Z,15.75
2023-01-07T10:17:06.879Z,20.90
2023-01-07T10:19:39.910Z,16.00
2023-01-07T10:22:15.631Z,18.75
2023-01-07T10:24:43.798Z,16.77
2023-01-07T10:27:12.810Z,33.78
2023-01-07T10:29:52.196Z,28.40
2023-01-07T10:32:20.021Z,30.02
2023-01-07T10:34:47.781Z,24.17
2023-01-07T10:37:18.066Z,14.13
2023-01-07T10:40:03.494Z,13.40
2023-01-07T10:42:33.928Z,12.57
2023-01-07T10:45:18.685Z,13.85
2023-01-07T10:47:57.369Z,12.35
2023-01-07T10:50:35.857Z,13.77
2023-01-07T10:53:05.171Z,14.25
2023-01-07T10:55:31.636Z,14.68
2023-01-07T10:57:58.174Z,16.25
2023-01-07T11:00:25.078Z,16.83
2023-01-07T11:02:54.620Z,18.73
2023-01-07T11:05:21.471Z,17.92
2023-01-07T11:07:52.801Z,17.80
2023-01-07T11:10:21.205Z,15.68
2023-01-07T11:12:56.354Z,20.98
2023-01-07T11:15:25.237Z,23.00
2023-01-07T11:17:51.734Z,36.00
2023-01-07T11:20:37.070Z,36.35
2023-01-07T11:23:17.121Z,22.30
2023-01-07T11:25:43.711Z,22.92
2023-01-07T11:28:17.094Z,26.08
2023-01-07T11:30:43.825Z,42.22
2023-01-07T11:33:20.038Z,26.30
2023-01-07T11:35:53.933Z,28.77
2023-01-07T11:38:31.685Z,25.27
2023-01-07T11:40:59.902Z,40.83
2023-01-07T11:43:33.191Z,26.85
2023-01-07T11:46:20.491Z,24.75
2023-01-07T11:48:52.657Z,22.60
2023-01-07T11:51:21.519Z,19.80
2023-01-07T11:53:56.794Z,17.63
2023-01-07T11:56:24.463Z,18.85
2023-01-07T11:58:52.384Z,52.85
2023-01-07T12:01:19.996Z,21.73
2023-01-07T12:03:53.597Z,18.48
2023-01-07T12:06:23.697Z,19.83
2023-01-07T12:09:04.735Z,19.42
2023-01-07T12:11:32.842Z,20.90
2023-01-07T12:14:05.259Z,19.50
2023-01-07T12:16:32.774Z,20.73
2023-01-07T12:19:31.981Z,19.48
2023-01-07T12:21:59.254Z,18.10
2023-01-07T12:24:40.584Z,18.98
2023-01-07T12:27:09.821Z,20.98
2023-01-07T12:29:36.471Z,27.38
2023-01-07T12:32:05.657Z,17.20
2023-01-07T12:34:32.354Z,21.40
2023-01-07T12:37:12.456Z,17.35
2023-01-07T12:39:42.515Z,18.55
2023-01-07T12:42:12.046Z,20.38
2023-01-07T12:44:41.040Z,21.10
2023-01-07T12:47:32.731Z,22.58
2023-01-07T12:50:03.249Z,81.85
2023-01-07T12:52:40.618Z,23.35
2023-01-07T12:55:43.301Z,18.65
2023-01-07T12:58:15.351Z,16.85
2023-01-07T13:00:49.222Z,17.35
2023-01-07T13:03:29.829Z,17.52
2023-01-07T13:05:59.395Z,28.05
2023-01-07T13:08:43.866Z,21.63
2023-01-07T13:11:15.332Z,17.45
2023-01-07T13:13:46.975Z,17.38
2023-01-07T13:18:39.817Z,18.40
2023-01-07T13:21:07.989Z,15.73
2023-01-07T13:23:52.985Z,17.15
2023-01-07T13:26:27.107Z,22.40
2023-01-07T13:28:56.416Z,19.20
2023-01-07T13:31:43.077Z,23.23
2023-01-07T13:34:28.432Z,18.77
2023-01-07T13:37:05.926Z,16.88
2023-01-07T13:39:36.170Z,18.25
2023-01-07T13:42:22.508Z,19.52
2023-01-07T13:44:48.984Z,18.95
2023-01-07T13:47:19.787Z,20.77
2023-01-07T13:49:56.874Z,18.77
2023-01-07T13:52:25.678Z,19.40
2023-01-07T13:54:52.503Z,19.73
2023-01-07T13:57:31.310Z,17.48
2023-01-07T13:59:58.799Z,20.40
2023-01-07T14:02:26.930Z,20.70
2023-01-07T14:05:07.476Z,19.98
2023-01-07T14:07:44.726Z,19.95
2023-01-07T14:10:18.678Z,20.23
2023-01-07T14:13:08.224Z,19.52
2023-01-07T14:15:45.068Z,22.55
2023-01-07T14:18:36.280Z,30.08
2023-01-07T14:21:20.344Z,24.40
2023-01-07T14:23:49.962Z,24.98
2023-01-07T14:26:28.495Z,22.95
2023-01-07T14:29:13.496Z,26.80
2023-01-07T14:31:40.103Z,24.17
2023-01-07T14:34:21.717Z,24.83
2023-01-07T14:37:09.035Z,25.38
2023-01-07T14:39:38.264Z,26.45
2023-01-07T14:42:19.689Z,28.75
2023-01-07T14:44:49.951Z,29.00
2023-01-07T14:47:35.196Z,31.40
2023-01-07T14:50:18.999Z,32.83
2023-01-07T14:52:45.406Z,34.67
2023-01-07T14:55:20.838Z,34.75
2023-01-07T14:58:05.449Z,39.03
2023-01-07T15:00:34.713Z,35.47
2023-01-07T15:03:23.898Z,34.35
2023-01-07T15:05:53.553Z,32.95
2023-01-07T15:08:40.316Z,34.58
2023-01-07T15:11:26.459Z,36.13
2023-01-07T15:14:19.989Z,38.85
2023-01-07T15:16:47.639Z,40.13
2023-01-07T15:19:14.170Z,39.00
2023-01-07T15:21:40.608Z,42.00
2023-01-07T15:24:15.823Z,38.75
2023-01-07T15:26:49.066Z,35.28
2023-01-07T15:29:18.428Z,37.95
2023-01-07T15:31:51.886Z,39.75
2023-01-07T15:34:18.627Z,41.92
2023-01-07T15:36:46.788Z,43.28
2023-01-07T15:39:18.438Z,38.40
2023-01-07T15:44:34.219Z,36.13
2023-01-07T15:47:01.115Z,39.38
2023-01-07T15:49:29.588Z,34.90
2023-01-07T15:52:00.336Z,35.20
2023-01-07T15:54:28.354Z,32.23
2023-01-07T15:56:58.039Z,32.35
2023-01-07T15:59:26.736Z,33.05
2023-01-07T16:01:55.405Z,35.75
2023-01-07T16:04:26.248Z,35.35
2023-01-07T16:06:56.528Z,33.13
2023-01-07T16:09:23.215Z,36.92
2023-01-07T16:11:50.323Z,37.00
2023-01-07T16:14:21.160Z,36.72
2023-01-07T16:16:47.650Z,41.00
2023-01-07T16:19:21.018Z,42.08
2023-01-07T16:21:53.075Z,46.38
2023-01-07T16:24:19.848Z,42.58
2023-01-07T16:26:49.645Z,43.65
2023-01-07T16:29:18.489Z,46.80
2023-01-07T16:31:45.244Z,43.40
2023-01-07T16:34:24.099Z,45.35
2023-01-07T16:37:00.249Z,42.55
2023-01-07T16:39:32.181Z,42.70
2023-01-07T16:42:17.502Z,43.67
2023-01-07T16:44:47.031Z,38.85
2023-01-07T16:47:23.833Z,41.70
2023-01-07T16:49:51.407Z,43.35
2023-01-07T16:52:19.993Z,42.17
2023-01-07T16:54:47.593Z,46.50
2023-01-07T16:57:14.523Z,47.25
2023-01-07T16:59:45.687Z,43.22
2023-01-07T17:02:21.255Z,44.15
2023-01-07T17:04:48.853Z,47.55
2023-01-07T17:07:19.832Z,49.00
2023-01-07T17:09:46.497Z,51.10
2023-01-07T17:12:31.679Z,50.08
2023-01-07T17:14:58.283Z,52.38
2023-01-07T17:17:29.978Z,57.38
2023-01-07T17:22:30.540Z,65.10
2023-01-07T17:25:03.069Z,51.85
2023-01-07T17:27:31.002Z,62.00
2023-01-07T17:30:01.052Z,66.00
2023-01-07T17:32:27.773Z,65.97
2023-01-07T17:34:54.390Z,68.18
2023-01-07T17:37:21.113Z,71.82
2023-01-07T17:39:48.586Z,65.03
2023-01-07T17:42:53.722Z,62.33
2023-01-07T17:45:20.531Z,62.70
2023-01-07T17:47:49.682Z,62.80
2023-01-07T17:50:17.059Z,67.05
2023-01-07T17:52:44.574Z,72.47
2023-01-07T17:55:15.707Z,73.10
2023-01-07T17:57:42.377Z,64.45
2023-01-07T18:00:16.827Z,73.55
2023-01-07T18:02:43.846Z,65.13
2023-01-07T18:05:13.936Z,64.53
2023-01-07T18:07:41.587Z,60.15
2023-01-07T18:10:09.292Z,64.60
2023-01-07T18:12:35.818Z,60.15
2023-01-07T18:15:03.266Z,64.78
2023-01-07T18:17:30.908Z,66.10
2023-01-07T18:19:57.574Z,61.42
2023-01-07T18:22:25.502Z,56.50
2023-01-07T18:24:52.108Z,55.03
2023-01-07T18:27:19.100Z,49.88
2023-01-07T18:29:45.553Z,48.38
2023-01-07T18:32:12.240Z,47.55
2023-01-07T18:34:38.903Z,43.45
2023-01-07T18:37:05.419Z,43.80
2023-01-07T18:39:31.880Z,44.90
2023-01-07T18:41:59.516Z,43.22
2023-01-07T18:44:26.248Z,49.92
2023-01-07T18:46:54.253Z,53.45
2023-01-07T18:49:20.779Z,49.78
2023-01-07T18:51:47.917Z,48.53
2023-01-07T18:54:14.802Z,46.85
2023-01-07T18:56:42.209Z,44.15
2023-01-07T18:59:08.909Z,45.60
2023-01-07T19:01:35.498Z,46.70
2023-01-07T19:04:02.815Z,43.08
2023-01-07T19:06:29.582Z,43.40
2023-01-07T19:08:56.745Z,46.00
2023-01-07T19:11:23.226Z,41.50
2023-01-07T19:13:49.827Z,44.83
2023-01-07T19:16:16.382Z,43.42
2023-01-07T19:18:43.052Z,42.20
2023-01-07T19:21:11.204Z,43.40
2023-01-07T19:23:37.886Z,45.50
2023-01-07T19:26:05.503Z,41.75
2023-01-07T19:28:32.993Z,43.60
2023-01-07T19:31:00.823Z,44.63
2023-01-07T19:33:27.512Z,47.07
2023-01-07T19:36:00.792Z,44.43
2023-01-07T19:38:27.942Z,43.00
2023-01-07T19:40:54.435Z,43.58
2023-01-07T19:43:20.944Z,46.13
2023-01-07T19:45:56.271Z,48.23
2023-01-07T19:48:26.355Z,47.53
2023-01-07T19:50:53.841Z,44.27
2023-01-07T19:53:23.308Z,46.70
2023-01-07T19:55:50.917Z,45.17
2023-01-07T19:58:18.467Z,45.93
2023-01-07T20:00:45.214Z,52.33
2023-01-07T20:03:12.192Z,49.10
2023-01-07T20:05:39.210Z,50.07
2023-01-07T20:08:05.731Z,48.57
2023-01-07T20:10:32.357Z,48.53
2023-01-07T20:12:59.064Z,48.40
2023-01-07T20:15:25.774Z,54.13
2023-01-07T20:17:52.276Z,47.77
2023-01-07T20:20:18.810Z,49.67
2023-01-07T20:22:45.812Z,46.83
2023-01-07T20:25:12.622Z,48.53
2023-01-07T20:27:39.156Z,47.77
2023-01-07T20:30:06.627Z,47.70
2023-01-07T20:32:33.553Z,47.77
2023-01-07T20:35:00.335Z,45.47
2023-01-07T20:37:28.153Z,48.40
2023-01-07T20:39:55.480Z,44.80
2023-01-07T20:42:22.544Z,45.03
2023-01-07T20:44:52.311Z,45.33
2023-01-07T20:47:18.903Z,44.97
2023-01-07T20:49:45.650Z,48.80
2023-01-07T20:52:12.139Z,48.13
2023-01-07T20:54:39.008Z,45.40
2023-01-07T20:57:05.571Z,42.77
2023-01-07T20:59:32.188Z,41.73
2023-01-07T21:01:58.740Z,42.80
2023-01-07T21:04:25.330Z,43.13
2023-01-07T21:06:52.063Z,42.20
2023-01-07T21:09:19.834Z,42.90
2023-01-07T21:11:47.652Z,40.47
2023-01-07T21:14:14.160Z,38.77
2023-01-07T21:16:40.779Z,42.80
2023-01-07T21:19:07.336Z,40.47
2023-01-07T21:21:33.769Z,37.13
2023-01-07T21:24:00.159Z,39.23
2023-01-07T21:26:29.684Z,37.70
2023-01-07T21:28:56.353Z,39.00
2023-01-07T21:31:23.773Z,37.73
2023-01-07T21:33:53.225Z,37.33
2023-01-07T21:36:20.022Z,38.47
2023-01-07T21:38:48.358Z,39.10
2023-01-07T21:41:15.953Z,38.50
2023-01-07T21:43:42.379Z,39.97
2023-01-07T21:46:09.346Z,41.60
2023-01-07T21:48:36.806Z,42.97
2023-01-07T21:51:04.145Z,43.37
2023-01-07T21:53:31.403Z,44.83
2023-01-07T21:55:57.992Z,46.37
2023-01-07T21:58:24.507Z,43.83
2023-01-07T22:00:52.270Z,47.23
2023-01-07T22:03:20.223Z,48.30
2023-01-07T22:05:57.924Z,44.77
2023-01-07T22:08:24.485Z,45.93
2023-01-07T22:10:51.034Z,43.77
2023-01-07T22:13:18.159Z,51.10
2023-01-07T22:15:44.672Z,46.30
2023-01-07T22:18:11.341Z,41.93
2023-01-07T22:20:37.795Z,43.63
2023-01-07T22:23:04.312Z,41.20
2023-01-07T22:25:33.259Z,42.63
2023-01-07T22:28:01.170Z,40.13
2023-01-07T22:30:29.041Z,38.70
2023-01-07T22:32:55.497Z,40.20
2023-01-07T22:35:22.222Z,41.17
2023-01-07T22:37:49.400Z,43.60
2023-01-07T22:40:16.442Z,38.77
2023-01-07T22:42:53.244Z,40.37
2023-01-07T22:45:26.333Z,39.90
2023-01-07T22:47:53.521Z,43.40
2023-01-07T22:50:20.257Z,40.67
2023-01-07T22:52:46.933Z,39.57
2023-01-07T22:55:13.811Z,39.47
2023-01-07T22:57:40.896Z,36.43
2023-01-07T23:00:10.202Z,34.97
2023-01-07T23:02:36.624Z,38.60
2023-01-07T23:05:03.653Z,33.07
2023-01-07T23:07:30.182Z,38.50
2023-01-07T23:09:56.617Z,37.97
2023-01-07T23:12:23.040Z,36.27
2023-01-07T23:14:50.183Z,37.30
2023-01-07T23:17:16.684Z,38.47
2023-01-07T23:19:43.736Z,37.03
2023-01-07T23:22:10.224Z,38.17
2023-01-07T23:24:37.404Z,38.77
2023-01-07T23:27:03.855Z,35.33
2023-01-07T23:29:30.769Z,38.43
2023-01-07T23:31:58.190Z,36.50
2023-01-07T23:34:24.725Z,38.03
2023-01-07T23:36:52.184Z,38.17
2023-01-07T23:39:19.398Z,37.10
2023-01-07T23:41:45.944Z,37.83
2023-01-07T23:44:12.457Z,40.80
2023-01-07T23:46:38.916Z,38.17
2023-01-07T23:49:05.358Z,38.23
2023-01-07T23:51:31.785Z,36.43
2023-01-07T23:53:58.305Z,33.13
2023-01-07T23:56:25.069Z,35.00
2023-01-07T23:58:52.126Z,38.07
